sensor_id;sensor_type;location;lat;lon;timestamp;P1;durP1;ratioP1;P2;durP2;ratioP2
75512;SDS011;64090;49.770;18.760;2023-12-28T00:01:52;2.40;;;2.20;;
75512;SDS011;64090;49.770;18.760;2023-12-28T00:04:55;2.60;;;1.90;;
75512;SDS011;64090;49.770;18.760;2023-12-28T00:11:29;3.70;;;2.40;;
75512;SDS011;64090;49.770;18.760;2023-12-28T00:14:41;4.30;;;1.80;;
75512;SDS011;64090;49.770;18.760;2023-12-28T00:26:09;5.00;;;2.60;;
75512;SDS011;64090;49.770;18.760;2023-12-28T00:29:36;3.30;;;1.80;;
75512;SDS011;64090;49.770;18.760;2023-12-28T00:32:53;4.10;;;1.90;;
75512;SDS011;64090;49.770;18.760;2023-12-28T00:36:11;3.50;;;2.40;;
75512;SDS011;64090;49.770;18.760;2023-12-28T00:39:19;3.10;;;1.50;;
75512;SDS011;64090;49.770;18.760;2023-12-28T00:42:53;3.80;;;2.00;;
75512;SDS011;64090;49.770;18.760;2023-12-28T00:46:19;4.30;;;2.30;;
75512;SDS011;64090;49.770;18.760;2023-12-28T00:49:31;2.80;;;2.20;;
75512;SDS011;64090;49.770;18.760;2023-12-28T00:52:58;4.30;;;2.40;;
75512;SDS011;64090;49.770;18.760;2023-12-28T00:56:01;2.80;;;1.90;;
75512;SDS011;64090;49.770;18.760;2023-12-28T01:03:05;3.50;;;2.40;;
75512;SDS011;64090;49.770;18.760;2023-12-28T01:06:58;5.70;;;2.60;;
75512;SDS011;64090;49.770;18.760;2023-12-28T01:10:01;4.20;;;2.70;;
75512;SDS011;64090;49.770;18.760;2023-12-28T01:17:13;3.30;;;2.70;;
75512;SDS011;64090;49.770;18.760;2023-12-28T01:20:16;5.30;;;3.00;;
75512;SDS011;64090;49.770;18.760;2023-12-28T01:23:33;4.80;;;2.20;;
75512;SDS011;64090;49.770;18.760;2023-12-28T01:26:37;5.20;;;2.50;;
75512;SDS011;64090;49.770;18.760;2023-12-28T01:29:42;3.50;;;2.20;;
75512;SDS011;64090;49.770;18.760;2023-12-28T01:33:28;5.30;;;3.40;;
75512;SDS011;64090;49.770;18.760;2023-12-28T01:41:04;3.60;;;2.30;;
75512;SDS011;64090;49.770;18.760;2023-12-28T01:44:01;3.90;;;2.40;;
75512;SDS011;64090;49.770;18.760;2023-12-28T01:47:07;4.60;;;3.00;;
75512;SDS011;64090;49.770;18.760;2023-12-28T01:50:23;6.80;;;3.20;;
75512;SDS011;64090;49.770;18.760;2023-12-28T01:53:40;4.10;;;2.30;;
75512;SDS011;64090;49.770;18.760;2023-12-28T01:57:13;6.10;;;3.40;;
75512;SDS011;64090;49.770;18.760;2023-12-28T02:00:23;6.10;;;3.60;;
75512;SDS011;64090;49.770;18.760;2023-12-28T02:04:07;9.60;;;3.30;;
75512;SDS011;64090;49.770;18.760;2023-12-28T02:07:45;4.60;;;2.90;;
75512;SDS011;64090;49.770;18.760;2023-12-28T02:11:23;5.50;;;3.10;;
75512;SDS011;64090;49.770;18.760;2023-12-28T02:19:17;3.10;;;2.00;;
75512;SDS011;64090;49.770;18.760;2023-12-28T02:26:35;5.00;;;2.60;;
75512;SDS011;64090;49.770;18.760;2023-12-28T02:30:04;3.60;;;2.40;;
75512;SDS011;64090;49.770;18.760;2023-12-28T02:33:48;4.20;;;2.80;;
75512;SDS011;64090;49.770;18.760;2023-12-28T02:36:55;3.90;;;2.00;;
75512;SDS011;64090;49.770;18.760;2023-12-28T02:40:16;5.20;;;3.40;;
75512;SDS011;64090;49.770;18.760;2023-12-28T02:43:46;4.40;;;2.20;;
75512;SDS011;64090;49.770;18.760;2023-12-28T02:46:58;7.30;;;3.70;;
75512;SDS011;64090;49.770;18.760;2023-12-28T02:57:07;6.60;;;4.80;;
75512;SDS011;64090;49.770;18.760;2023-12-28T03:00:14;4.70;;;2.90;;
75512;SDS011;64090;49.770;18.760;2023-12-28T03:06:50;5.30;;;3.50;;
75512;SDS011;64090;49.770;18.760;2023-12-28T03:09:54;5.50;;;3.00;;
75512;SDS011;64090;49.770;18.760;2023-12-28T03:12:57;9.90;;;5.30;;
75512;SDS011;64090;49.770;18.760;2023-12-28T03:16:02;4.30;;;3.50;;
75512;SDS011;64090;49.770;18.760;2023-12-28T03:19:05;4.90;;;3.40;;
75512;SDS011;64090;49.770;18.760;2023-12-28T03:22:10;5.00;;;3.20;;
75512;SDS011;64090;49.770;18.760;2023-12-28T03:25:14;3.40;;;2.50;;
75512;SDS011;64090;49.770;18.760;2023-12-28T03:28:20;4.70;;;3.60;;
75512;SDS011;64090;49.770;18.760;2023-12-28T03:31:25;6.00;;;3.90;;
75512;SDS011;64090;49.770;18.760;2023-12-28T03:34:29;5.30;;;4.70;;
75512;SDS011;64090;49.770;18.760;2023-12-28T03:37:33;6.20;;;2.80;;
75512;SDS011;64090;49.770;18.760;2023-12-28T03:40:38;6.50;;;3.50;;
75512;SDS011;64090;49.770;18.760;2023-12-28T03:43:41;4.60;;;2.70;;
75512;SDS011;64090;49.770;18.760;2023-12-28T03:46:45;5.20;;;2.70;;
75512;SDS011;64090;49.770;18.760;2023-12-28T03:49:49;4.80;;;3.10;;
75512;SDS011;64090;49.770;18.760;2023-12-28T03:52:53;6.20;;;3.90;;
75512;SDS011;64090;49.770;18.760;2023-12-28T03:56:00;4.40;;;2.80;;
75512;SDS011;64090;49.770;18.760;2023-12-28T03:59:11;5.50;;;3.80;;
75512;SDS011;64090;49.770;18.760;2023-12-28T04:02:15;4.30;;;2.80;;
75512;SDS011;64090;49.770;18.760;2023-12-28T04:05:19;6.60;;;3.40;;
75512;SDS011;64090;49.770;18.760;2023-12-28T04:08:23;4.70;;;2.40;;
75512;SDS011;64090;49.770;18.760;2023-12-28T04:11:27;7.50;;;2.60;;
75512;SDS011;64090;49.770;18.760;2023-12-28T04:14:30;6.40;;;3.40;;
75512;SDS011;64090;49.770;18.760;2023-12-28T04:17:34;5.30;;;2.40;;
75512;SDS011;64090;49.770;18.760;2023-12-28T04:20:37;8.30;;;3.40;;
75512;SDS011;64090;49.770;18.760;2023-12-28T04:23:40;4.40;;;2.60;;
75512;SDS011;64090;49.770;18.760;2023-12-28T04:26:45;6.00;;;4.10;;
75512;SDS011;64090;49.770;18.760;2023-12-28T04:29:48;6.70;;;3.70;;
75512;SDS011;64090;49.770;18.760;2023-12-28T04:32:51;5.10;;;3.30;;
75512;SDS011;64090;49.770;18.760;2023-12-28T04:35:54;5.10;;;3.10;;
75512;SDS011;64090;49.770;18.760;2023-12-28T04:38:57;5.90;;;3.40;;
75512;SDS011;64090;49.770;18.760;2023-12-28T04:42:01;5.80;;;3.60;;
75512;SDS011;64090;49.770;18.760;2023-12-28T04:45:06;5.10;;;2.60;;
75512;SDS011;64090;49.770;18.760;2023-12-28T04:48:10;5.10;;;3.30;;
75512;SDS011;64090;49.770;18.760;2023-12-28T04:51:15;5.80;;;3.30;;
75512;SDS011;64090;49.770;18.760;2023-12-28T04:54:18;5.00;;;3.30;;
75512;SDS011;64090;49.770;18.760;2023-12-28T04:57:23;7.30;;;4.00;;
75512;SDS011;64090;49.770;18.760;2023-12-28T05:00:30;4.50;;;3.50;;
75512;SDS011;64090;49.770;18.760;2023-12-28T05:03:35;7.20;;;4.90;;
75512;SDS011;64090;49.770;18.760;2023-12-28T05:06:40;7.80;;;3.70;;
75512;SDS011;64090;49.770;18.760;2023-12-28T05:09:43;5.80;;;4.00;;
75512;SDS011;64090;49.770;18.760;2023-12-28T05:12:51;5.90;;;3.30;;
75512;SDS011;64090;49.770;18.760;2023-12-28T05:15:54;4.20;;;2.90;;
75512;SDS011;64090;49.770;18.760;2023-12-28T05:19:02;6.70;;;3.20;;
75512;SDS011;64090;49.770;18.760;2023-12-28T05:22:06;5.90;;;3.50;;
75512;SDS011;64090;49.770;18.760;2023-12-28T05:25:14;4.30;;;3.40;;
75512;SDS011;64090;49.770;18.760;2023-12-28T05:28:19;7.80;;;4.10;;
75512;SDS011;64090;49.770;18.760;2023-12-28T05:31:22;5.80;;;3.60;;
75512;SDS011;64090;49.770;18.760;2023-12-28T05:34:25;4.80;;;2.30;;
75512;SDS011;64090;49.770;18.760;2023-12-28T05:37:30;5.00;;;3.40;;
75512;SDS011;64090;49.770;18.760;2023-12-28T05:40:37;6.70;;;3.20;;
75512;SDS011;64090;49.770;18.760;2023-12-28T05:43:42;4.80;;;2.80;;
75512;SDS011;64090;49.770;18.760;2023-12-28T05:46:45;4.80;;;3.30;;
75512;SDS011;64090;49.770;18.760;2023-12-28T05:49:50;4.80;;;3.10;;
75512;SDS011;64090;49.770;18.760;2023-12-28T05:52:54;7.80;;;2.70;;
75512;SDS011;64090;49.770;18.760;2023-12-28T05:56:00;6.10;;;4.10;;
75512;SDS011;64090;49.770;18.760;2023-12-28T05:59:07;5.10;;;2.90;;
75512;SDS011;64090;49.770;18.760;2023-12-28T06:02:10;6.00;;;3.30;;
75512;SDS011;64090;49.770;18.760;2023-12-28T06:05:13;3.80;;;2.20;;
75512;SDS011;64090;49.770;18.760;2023-12-28T06:08:17;5.40;;;3.40;;
75512;SDS011;64090;49.770;18.760;2023-12-28T06:11:20;7.90;;;3.60;;
75512;SDS011;64090;49.770;18.760;2023-12-28T06:14:23;4.00;;;2.60;;
75512;SDS011;64090;49.770;18.760;2023-12-28T06:17:26;5.60;;;3.80;;
75512;SDS011;64090;49.770;18.760;2023-12-28T06:20:32;4.60;;;2.70;;
75512;SDS011;64090;49.770;18.760;2023-12-28T06:26:39;4.10;;;2.30;;
75512;SDS011;64090;49.770;18.760;2023-12-28T06:29:46;4.50;;;2.70;;
75512;SDS011;64090;49.770;18.760;2023-12-28T06:32:49;5.30;;;3.20;;
75512;SDS011;64090;49.770;18.760;2023-12-28T06:35:52;5.80;;;3.30;;
75512;SDS011;64090;49.770;18.760;2023-12-28T06:38:56;6.90;;;3.70;;
75512;SDS011;64090;49.770;18.760;2023-12-28T06:42:00;6.90;;;3.70;;
75512;SDS011;64090;49.770;18.760;2023-12-28T06:45:04;6.90;;;3.60;;
75512;SDS011;64090;49.770;18.760;2023-12-28T06:48:09;5.70;;;2.70;;
75512;SDS011;64090;49.770;18.760;2023-12-28T06:51:16;4.30;;;2.90;;
75512;SDS011;64090;49.770;18.760;2023-12-28T06:54:23;9.40;;;3.60;;
75512;SDS011;64090;49.770;18.760;2023-12-28T06:57:26;6.30;;;3.00;;
75512;SDS011;64090;49.770;18.760;2023-12-28T07:00:30;5.90;;;2.90;;
75512;SDS011;64090;49.770;18.760;2023-12-28T07:03:34;5.60;;;3.70;;
75512;SDS011;64090;49.770;18.760;2023-12-28T07:06:41;4.90;;;2.40;;
75512;SDS011;64090;49.770;18.760;2023-12-28T07:09:45;4.60;;;2.70;;
75512;SDS011;64090;49.770;18.760;2023-12-28T07:12:49;4.60;;;3.20;;
75512;SDS011;64090;49.770;18.760;2023-12-28T07:15:54;3.10;;;2.20;;
75512;SDS011;64090;49.770;18.760;2023-12-28T07:19:01;5.40;;;3.60;;
75512;SDS011;64090;49.770;18.760;2023-12-28T07:22:07;6.30;;;3.70;;
75512;SDS011;64090;49.770;18.760;2023-12-28T07:25:11;5.90;;;3.10;;
75512;SDS011;64090;49.770;18.760;2023-12-28T07:28:15;7.20;;;3.20;;
75512;SDS011;64090;49.770;18.760;2023-12-28T07:31:24;5.60;;;3.30;;
75512;SDS011;64090;49.770;18.760;2023-12-28T07:34:31;6.50;;;3.10;;
75512;SDS011;64090;49.770;18.760;2023-12-28T07:37:36;5.00;;;3.00;;
75512;SDS011;64090;49.770;18.760;2023-12-28T07:40:41;3.90;;;2.60;;
75512;SDS011;64090;49.770;18.760;2023-12-28T07:43:45;6.90;;;3.10;;
75512;SDS011;64090;49.770;18.760;2023-12-28T07:46:49;4.40;;;2.40;;
75512;SDS011;64090;49.770;18.760;2023-12-28T07:49:55;4.90;;;2.80;;
75512;SDS011;64090;49.770;18.760;2023-12-28T07:52:59;4.00;;;2.30;;
75512;SDS011;64090;49.770;18.760;2023-12-28T07:56:04;4.10;;;2.60;;
75512;SDS011;64090;49.770;18.760;2023-12-28T07:59:11;4.80;;;2.90;;
75512;SDS011;64090;49.770;18.760;2023-12-28T08:02:16;3.70;;;2.60;;
75512;SDS011;64090;49.770;18.760;2023-12-28T08:05:25;4.00;;;2.80;;
75512;SDS011;64090;49.770;18.760;2023-12-28T08:08:30;5.80;;;3.60;;
75512;SDS011;64090;49.770;18.760;2023-12-28T08:11:37;4.60;;;2.80;;
75512;SDS011;64090;49.770;18.760;2023-12-28T08:14:42;4.00;;;2.30;;
75512;SDS011;64090;49.770;18.760;2023-12-28T08:17:46;4.30;;;2.80;;
75512;SDS011;64090;49.770;18.760;2023-12-28T08:20:50;4.70;;;4.00;;
75512;SDS011;64090;49.770;18.760;2023-12-28T08:23:56;4.60;;;2.90;;
75512;SDS011;64090;49.770;18.760;2023-12-28T08:27:02;4.60;;;3.10;;
75512;SDS011;64090;49.770;18.760;2023-12-28T08:30:08;5.70;;;2.70;;
75512;SDS011;64090;49.770;18.760;2023-12-28T08:36:20;5.10;;;3.10;;
75512;SDS011;64090;49.770;18.760;2023-12-28T08:39:28;4.60;;;2.40;;
75512;SDS011;64090;49.770;18.760;2023-12-28T08:42:36;6.00;;;3.40;;
75512;SDS011;64090;49.770;18.760;2023-12-28T08:45:42;4.60;;;3.20;;
75512;SDS011;64090;49.770;18.760;2023-12-28T08:48:45;4.80;;;2.90;;
75512;SDS011;64090;49.770;18.760;2023-12-28T08:51:50;4.60;;;3.10;;
75512;SDS011;64090;49.770;18.760;2023-12-28T08:54:55;3.80;;;2.30;;
75512;SDS011;64090;49.770;18.760;2023-12-28T08:57:59;4.60;;;2.20;;
75512;SDS011;64090;49.770;18.760;2023-12-28T09:01:04;3.60;;;2.20;;
75512;SDS011;64090;49.770;18.760;2023-12-28T09:04:09;4.10;;;2.90;;
75512;SDS011;64090;49.770;18.760;2023-12-28T09:07:13;5.20;;;2.30;;
75512;SDS011;64090;49.770;18.760;2023-12-28T09:10:16;4.10;;;1.90;;
75512;SDS011;64090;49.770;18.760;2023-12-28T09:13:20;3.00;;;2.10;;
75512;SDS011;64090;49.770;18.760;2023-12-28T09:16:24;4.80;;;2.30;;
75512;SDS011;64090;49.770;18.760;2023-12-28T09:19:29;4.70;;;2.00;;
75512;SDS011;64090;49.770;18.760;2023-12-28T09:22:33;3.70;;;2.10;;
75512;SDS011;64090;49.770;18.760;2023-12-28T09:25:37;3.60;;;2.20;;
75512;SDS011;64090;49.770;18.760;2023-12-28T09:28:41;4.40;;;1.90;;
75512;SDS011;64090;49.770;18.760;2023-12-28T09:31:46;4.20;;;2.60;;
75512;SDS011;64090;49.770;18.760;2023-12-28T09:34:50;3.90;;;1.90;;
75512;SDS011;64090;49.770;18.760;2023-12-28T09:37:53;4.60;;;3.70;;
75512;SDS011;64090;49.770;18.760;2023-12-28T09:41:01;4.60;;;2.20;;
75512;SDS011;64090;49.770;18.760;2023-12-28T09:44:15;4.50;;;2.50;;
75512;SDS011;64090;49.770;18.760;2023-12-28T09:47:21;5.70;;;2.30;;
75512;SDS011;64090;49.770;18.760;2023-12-28T09:50:26;4.50;;;2.10;;
75512;SDS011;64090;49.770;18.760;2023-12-28T09:53:30;4.50;;;2.50;;
75512;SDS011;64090;49.770;18.760;2023-12-28T09:56:34;5.10;;;2.80;;
75512;SDS011;64090;49.770;18.760;2023-12-28T09:59:39;4.70;;;2.40;;
75512;SDS011;64090;49.770;18.760;2023-12-28T10:02:44;4.80;;;2.60;;
75512;SDS011;64090;49.770;18.760;2023-12-28T10:05:48;3.60;;;2.70;;
75512;SDS011;64090;49.770;18.760;2023-12-28T10:08:53;4.40;;;2.40;;
75512;SDS011;64090;49.770;18.760;2023-12-28T10:11:57;3.80;;;2.90;;
75512;SDS011;64090;49.770;18.760;2023-12-28T10:15:02;4.00;;;2.60;;
75512;SDS011;64090;49.770;18.760;2023-12-28T10:18:06;3.80;;;2.90;;
75512;SDS011;64090;49.770;18.760;2023-12-28T10:21:10;3.70;;;2.30;;
75512;SDS011;64090;49.770;18.760;2023-12-28T10:24:14;5.50;;;2.60;;
75512;SDS011;64090;49.770;18.760;2023-12-28T10:27:17;5.30;;;3.20;;
75512;SDS011;64090;49.770;18.760;2023-12-28T10:30:22;5.00;;;3.80;;
75512;SDS011;64090;49.770;18.760;2023-12-28T10:33:27;5.00;;;3.20;;
75512;SDS011;64090;49.770;18.760;2023-12-28T10:36:31;4.80;;;2.40;;
75512;SDS011;64090;49.770;18.760;2023-12-28T10:39:39;4.90;;;3.10;;
75512;SDS011;64090;49.770;18.760;2023-12-28T10:42:54;4.40;;;2.20;;
75512;SDS011;64090;49.770;18.760;2023-12-28T10:46:02;5.20;;;2.90;;
75512;SDS011;64090;49.770;18.760;2023-12-28T10:49:14;4.30;;;2.80;;
75512;SDS011;64090;49.770;18.760;2023-12-28T10:52:22;4.10;;;3.00;;
75512;SDS011;64090;49.770;18.760;2023-12-28T10:55:34;4.90;;;2.60;;
75512;SDS011;64090;49.770;18.760;2023-12-28T10:58:55;4.00;;;2.40;;
75512;SDS011;64090;49.770;18.760;2023-12-28T11:02:09;3.50;;;2.50;;
75512;SDS011;64090;49.770;18.760;2023-12-28T11:05:17;4.00;;;2.70;;
75512;SDS011;64090;49.770;18.760;2023-12-28T11:08:22;3.80;;;2.00;;
75512;SDS011;64090;49.770;18.760;2023-12-28T11:11:25;6.80;;;3.10;;
75512;SDS011;64090;49.770;18.760;2023-12-28T11:14:29;6.40;;;3.00;;
75512;SDS011;64090;49.770;18.760;2023-12-28T11:17:35;5.60;;;3.10;;
75512;SDS011;64090;49.770;18.760;2023-12-28T11:20:40;5.70;;;3.00;;
75512;SDS011;64090;49.770;18.760;2023-12-28T11:23:45;4.70;;;3.20;;
75512;SDS011;64090;49.770;18.760;2023-12-28T11:26:53;3.90;;;2.90;;
75512;SDS011;64090;49.770;18.760;2023-12-28T11:29:57;4.40;;;2.70;;
75512;SDS011;64090;49.770;18.760;2023-12-28T11:33:01;4.80;;;1.90;;
75512;SDS011;64090;49.770;18.760;2023-12-28T11:36:08;3.10;;;2.20;;
75512;SDS011;64090;49.770;18.760;2023-12-28T11:39:12;4.20;;;2.20;;
75512;SDS011;64090;49.770;18.760;2023-12-28T11:42:23;4.80;;;2.60;;
75512;SDS011;64090;49.770;18.760;2023-12-28T11:45:27;3.20;;;2.10;;
75512;SDS011;64090;49.770;18.760;2023-12-28T11:48:33;4.70;;;3.10;;
75512;SDS011;64090;49.770;18.760;2023-12-28T11:51:39;3.70;;;2.40;;
75512;SDS011;64090;49.770;18.760;2023-12-28T11:54:50;3.90;;;2.80;;
75512;SDS011;64090;49.770;18.760;2023-12-28T11:57:53;4.90;;;2.40;;
75512;SDS011;64090;49.770;18.760;2023-12-28T12:00:56;5.60;;;2.60;;
75512;SDS011;64090;49.770;18.760;2023-12-28T12:04:02;4.70;;;3.00;;
75512;SDS011;64090;49.770;18.760;2023-12-28T12:07:06;4.40;;;3.00;;
75512;SDS011;64090;49.770;18.760;2023-12-28T12:10:14;5.60;;;3.10;;
75512;SDS011;64090;49.770;18.760;2023-12-28T12:13:18;4.80;;;2.40;;
75512;SDS011;64090;49.770;18.760;2023-12-28T12:16:22;6.00;;;3.10;;
75512;SDS011;64090;49.770;18.760;2023-12-28T12:19:26;4.20;;;2.60;;
75512;SDS011;64090;49.770;18.760;2023-12-28T12:22:34;4.40;;;2.80;;
75512;SDS011;64090;49.770;18.760;2023-12-28T12:25:38;6.40;;;3.10;;
75512;SDS011;64090;49.770;18.760;2023-12-28T12:28:41;5.30;;;4.10;;
75512;SDS011;64090;49.770;18.760;2023-12-28T12:31:46;4.50;;;2.70;;
75512;SDS011;64090;49.770;18.760;2023-12-28T12:34:51;7.60;;;3.30;;
75512;SDS011;64090;49.770;18.760;2023-12-28T12:37:55;5.40;;;3.20;;
75512;SDS011;64090;49.770;18.760;2023-12-28T12:40:58;5.40;;;2.80;;
75512;SDS011;64090;49.770;18.760;2023-12-28T12:44:02;4.20;;;2.80;;
75512;SDS011;64090;49.770;18.760;2023-12-28T12:47:09;5.90;;;2.60;;
75512;SDS011;64090;49.770;18.760;2023-12-28T12:50:15;3.90;;;2.30;;
75512;SDS011;64090;49.770;18.760;2023-12-28T12:53:19;4.60;;;3.20;;
75512;SDS011;64090;49.770;18.760;2023-12-28T12:56:23;5.60;;;2.80;;
75512;SDS011;64090;49.770;18.760;2023-12-28T13:05:37;5.00;;;3.00;;
75512;SDS011;64090;49.770;18.760;2023-12-28T13:08:52;4.90;;;2.60;;
75512;SDS011;64090;49.770;18.760;2023-12-28T13:12:10;3.40;;;1.60;;
75512;SDS011;64090;49.770;18.760;2023-12-28T13:15:23;3.10;;;1.90;;
75512;SDS011;64090;49.770;18.760;2023-12-28T13:18:30;4.20;;;2.50;;
75512;SDS011;64090;49.770;18.760;2023-12-28T13:21:43;3.50;;;2.70;;
75512;SDS011;64090;49.770;18.760;2023-12-28T13:24:52;5.00;;;2.70;;
75512;SDS011;64090;49.770;18.760;2023-12-28T13:28:09;4.70;;;3.00;;
75512;SDS011;64090;49.770;18.760;2023-12-28T13:31:30;4.50;;;3.20;;
75512;SDS011;64090;49.770;18.760;2023-12-28T13:34:42;5.00;;;3.40;;
75512;SDS011;64090;49.770;18.760;2023-12-28T13:40:58;5.80;;;3.30;;
75512;SDS011;64090;49.770;18.760;2023-12-28T13:44:05;4.20;;;2.80;;
75512;SDS011;64090;49.770;18.760;2023-12-28T13:47:13;4.60;;;2.90;;
75512;SDS011;64090;49.770;18.760;2023-12-28T13:50:18;5.30;;;3.70;;
75512;SDS011;64090;49.770;18.760;2023-12-28T13:53:24;4.20;;;2.80;;
75512;SDS011;64090;49.770;18.760;2023-12-28T13:56:28;5.00;;;2.90;;
75512;SDS011;64090;49.770;18.760;2023-12-28T13:59:34;4.50;;;2.90;;
75512;SDS011;64090;49.770;18.760;2023-12-28T14:02:45;6.60;;;4.20;;
75512;SDS011;64090;49.770;18.760;2023-12-28T14:05:51;5.10;;;3.70;;
75512;SDS011;64090;49.770;18.760;2023-12-28T14:09:03;5.70;;;3.60;;
75512;SDS011;64090;49.770;18.760;2023-12-28T14:12:14;6.70;;;5.30;;
75512;SDS011;64090;49.770;18.760;2023-12-28T14:15:27;6.40;;;3.10;;
75512;SDS011;64090;49.770;18.760;2023-12-28T14:18:41;5.30;;;2.60;;
75512;SDS011;64090;49.770;18.760;2023-12-28T14:21:51;5.90;;;2.90;;
75512;SDS011;64090;49.770;18.760;2023-12-28T14:24:57;4.70;;;2.80;;
75512;SDS011;64090;49.770;18.760;2023-12-28T14:28:07;4.40;;;2.50;;
75512;SDS011;64090;49.770;18.760;2023-12-28T14:31:13;4.70;;;2.70;;
75512;SDS011;64090;49.770;18.760;2023-12-28T14:34:17;5.00;;;2.30;;
75512;SDS011;64090;49.770;18.760;2023-12-28T14:37:20;6.90;;;3.80;;
75512;SDS011;64090;49.770;18.760;2023-12-28T14:40:23;7.20;;;4.20;;
75512;SDS011;64090;49.770;18.760;2023-12-28T14:43:26;7.40;;;4.10;;
75512;SDS011;64090;49.770;18.760;2023-12-28T14:46:31;7.90;;;4.50;;
75512;SDS011;64090;49.770;18.760;2023-12-28T14:49:34;8.20;;;4.90;;
75512;SDS011;64090;49.770;18.760;2023-12-28T14:52:37;7.90;;;5.20;;
75512;SDS011;64090;49.770;18.760;2023-12-28T14:55:45;10.50;;;5.60;;
75512;SDS011;64090;49.770;18.760;2023-12-28T14:58:48;9.30;;;5.00;;
75512;SDS011;64090;49.770;18.760;2023-12-28T15:01:51;8.70;;;4.70;;
75512;SDS011;64090;49.770;18.760;2023-12-28T15:04:55;10.20;;;6.10;;
75512;SDS011;64090;49.770;18.760;2023-12-28T15:08:01;10.60;;;5.50;;
75512;SDS011;64090;49.770;18.760;2023-12-28T15:11:04;11.60;;;6.20;;
75512;SDS011;64090;49.770;18.760;2023-12-28T15:17:13;12.50;;;7.30;;
75512;SDS011;64090;49.770;18.760;2023-12-28T15:20:16;10.00;;;6.00;;
75512;SDS011;64090;49.770;18.760;2023-12-28T15:23:19;9.10;;;5.60;;
75512;SDS011;64090;49.770;18.760;2023-12-28T15:26:23;8.50;;;5.40;;
75512;SDS011;64090;49.770;18.760;2023-12-28T15:29:26;11.00;;;5.40;;
75512;SDS011;64090;49.770;18.760;2023-12-28T15:32:29;10.80;;;5.60;;
75512;SDS011;64090;49.770;18.760;2023-12-28T15:35:32;10.70;;;6.50;;
75512;SDS011;64090;49.770;18.760;2023-12-28T15:38:40;13.10;;;8.50;;
75512;SDS011;64090;49.770;18.760;2023-12-28T15:41:43;11.90;;;7.20;;
75512;SDS011;64090;49.770;18.760;2023-12-28T15:44:46;9.60;;;6.40;;
75512;SDS011;64090;49.770;18.760;2023-12-28T15:47:49;11.20;;;6.50;;
75512;SDS011;64090;49.770;18.760;2023-12-28T15:50:53;13.50;;;7.90;;
75512;SDS011;64090;49.770;18.760;2023-12-28T15:53:56;12.50;;;6.70;;
75512;SDS011;64090;49.770;18.760;2023-12-28T15:56:59;12.90;;;7.10;;
75512;SDS011;64090;49.770;18.760;2023-12-28T16:00:02;13.60;;;7.40;;
75512;SDS011;64090;49.770;18.760;2023-12-28T16:03:05;12.40;;;6.80;;
75512;SDS011;64090;49.770;18.760;2023-12-28T16:06:09;16.70;;;9.20;;
75512;SDS011;64090;49.770;18.760;2023-12-28T16:09:13;14.70;;;7.30;;
75512;SDS011;64090;49.770;18.760;2023-12-28T16:12:16;11.80;;;7.70;;
75512;SDS011;64090;49.770;18.760;2023-12-28T16:15:20;12.20;;;7.20;;
75512;SDS011;64090;49.770;18.760;2023-12-28T16:18:24;13.60;;;8.10;;
75512;SDS011;64090;49.770;18.760;2023-12-28T16:21:28;11.90;;;6.90;;
75512;SDS011;64090;49.770;18.760;2023-12-28T16:24:33;15.10;;;7.20;;
75512;SDS011;64090;49.770;18.760;2023-12-28T16:27:37;13.20;;;8.60;;
75512;SDS011;64090;49.770;18.760;2023-12-28T16:30:40;13.30;;;7.00;;
75512;SDS011;64090;49.770;18.760;2023-12-28T16:33:43;16.50;;;8.00;;
75512;SDS011;64090;49.770;18.760;2023-12-28T16:36:46;15.40;;;8.20;;
75512;SDS011;64090;49.770;18.760;2023-12-28T16:39:49;16.60;;;8.60;;
75512;SDS011;64090;49.770;18.760;2023-12-28T16:42:52;15.40;;;8.20;;
75512;SDS011;64090;49.770;18.760;2023-12-28T16:45:55;14.00;;;7.40;;
75512;SDS011;64090;49.770;18.760;2023-12-28T16:48:58;13.80;;;7.20;;
75512;SDS011;64090;49.770;18.760;2023-12-28T16:52:02;12.60;;;6.20;;
75512;SDS011;64090;49.770;18.760;2023-12-28T16:55:05;9.30;;;5.70;;
75512;SDS011;64090;49.770;18.760;2023-12-28T16:58:08;13.90;;;7.60;;
75512;SDS011;64090;49.770;18.760;2023-12-28T17:01:11;13.50;;;6.40;;
75512;SDS011;64090;49.770;18.760;2023-12-28T17:04:14;11.70;;;6.60;;
75512;SDS011;64090;49.770;18.760;2023-12-28T17:07:17;12.50;;;6.30;;
75512;SDS011;64090;49.770;18.760;2023-12-28T17:10:20;18.10;;;8.20;;
75512;SDS011;64090;49.770;18.760;2023-12-28T17:13:24;19.90;;;9.40;;
75512;SDS011;64090;49.770;18.760;2023-12-28T17:16:27;22.40;;;10.90;;
75512;SDS011;64090;49.770;18.760;2023-12-28T17:19:30;21.30;;;10.10;;
75512;SDS011;64090;49.770;18.760;2023-12-28T17:22:43;45.50;;;19.80;;
75512;SDS011;64090;49.770;18.760;2023-12-28T17:26:03;24.20;;;11.90;;
75512;SDS011;64090;49.770;18.760;2023-12-28T17:29:12;14.80;;;7.30;;
75512;SDS011;64090;49.770;18.760;2023-12-28T17:32:16;15.00;;;8.40;;
75512;SDS011;64090;49.770;18.760;2023-12-28T17:35:20;16.40;;;8.90;;
75512;SDS011;64090;49.770;18.760;2023-12-28T17:38:24;15.60;;;9.20;;
75512;SDS011;64090;49.770;18.760;2023-12-28T17:41:29;13.90;;;8.20;;
75512;SDS011;64090;49.770;18.760;2023-12-28T17:44:35;13.40;;;6.70;;
75512;SDS011;64090;49.770;18.760;2023-12-28T17:51:02;12.00;;;6.30;;
75512;SDS011;64090;49.770;18.760;2023-12-28T17:54:06;11.70;;;6.50;;
75512;SDS011;64090;49.770;18.760;2023-12-28T17:57:10;10.80;;;6.40;;
75512;SDS011;64090;49.770;18.760;2023-12-28T18:00:13;9.40;;;4.70;;
75512;SDS011;64090;49.770;18.760;2023-12-28T18:03:25;12.60;;;7.00;;
75512;SDS011;64090;49.770;18.760;2023-12-28T18:06:42;9.30;;;6.20;;
75512;SDS011;64090;49.770;18.760;2023-12-28T18:09:47;11.80;;;6.20;;
75512;SDS011;64090;49.770;18.760;2023-12-28T18:12:54;9.80;;;5.90;;
75512;SDS011;64090;49.770;18.760;2023-12-28T18:15:58;11.10;;;5.70;;
75512;SDS011;64090;49.770;18.760;2023-12-28T18:19:02;21.50;;;11.10;;
75512;SDS011;64090;49.770;18.760;2023-12-28T18:22:11;22.10;;;9.80;;
75512;SDS011;64090;49.770;18.760;2023-12-28T18:25:16;13.20;;;6.80;;
75512;SDS011;64090;49.770;18.760;2023-12-28T18:28:24;14.80;;;7.80;;
75512;SDS011;64090;49.770;18.760;2023-12-28T18:31:29;18.10;;;8.30;;
75512;SDS011;64090;49.770;18.760;2023-12-28T18:37:42;10.60;;;6.50;;
75512;SDS011;64090;49.770;18.760;2023-12-28T18:40:49;11.60;;;6.60;;
75512;SDS011;64090;49.770;18.760;2023-12-28T18:43:53;8.90;;;5.30;;
75512;SDS011;64090;49.770;18.760;2023-12-28T18:46:57;7.30;;;4.80;;
75512;SDS011;64090;49.770;18.760;2023-12-28T18:50:00;9.50;;;5.40;;
75512;SDS011;64090;49.770;18.760;2023-12-28T18:53:04;10.80;;;6.60;;
75512;SDS011;64090;49.770;18.760;2023-12-28T18:56:09;15.90;;;6.90;;
75512;SDS011;64090;49.770;18.760;2023-12-28T18:59:12;12.40;;;6.10;;
75512;SDS011;64090;49.770;18.760;2023-12-28T19:02:16;10.00;;;5.60;;
75512;SDS011;64090;49.770;18.760;2023-12-28T19:05:21;11.10;;;6.80;;
75512;SDS011;64090;49.770;18.760;2023-12-28T19:08:26;9.70;;;4.90;;
75512;SDS011;64090;49.770;18.760;2023-12-28T19:11:34;11.00;;;6.20;;
75512;SDS011;64090;49.770;18.760;2023-12-28T19:14:39;10.30;;;5.80;;
75512;SDS011;64090;49.770;18.760;2023-12-28T19:17:45;9.50;;;5.20;;
75512;SDS011;64090;49.770;18.760;2023-12-28T19:20:52;8.30;;;4.90;;
75512;SDS011;64090;49.770;18.760;2023-12-28T19:24:04;8.20;;;6.80;;
75512;SDS011;64090;49.770;18.760;2023-12-28T19:27:12;7.40;;;4.50;;
75512;SDS011;64090;49.770;18.760;2023-12-28T19:30:19;8.40;;;5.10;;
75512;SDS011;64090;49.770;18.760;2023-12-28T19:33:26;8.00;;;4.40;;